sensor_id;sensor_type;location;lat;lon;timestamp;pressure;altitude;pressure_sealevel;temperature;humidity
10014;BME280;45684;48.358;10.746;2023-02-19T20:58:24;97198.13;;;8.15;100.00
10014;BME280;45684;48.358;10.746;2023-02-19T21:00:56;97191.16;;;8.09;100.00
10014;BME280;45684;48.358;10.746;2023-02-19T21:03:33;97201.63;;;8.11;100.00
10014;BME280;45684;48.358;10.746;2023-02-19T21:06:01;97211.06;;;8.13;100.00
10014;BME280;45684;48.358;10.746;2023-02-19T21:08:45;97200.31;;;8.13;100.00
10014;BME280;45684;48.358;10.746;2023-02-19T21:11:52;97213.78;;;8.13;100.00
10014;BME280;45684;48.358;10.746;2023-02-19T21:14:28;97207.88;;;8.11;100.00
10014;BME280;45684;48.358;10.746;2023-02-19T21:17:09;97214.06;;;8.12;100.00
10014;BME280;45684;48.358;10.746;2023-02-19T21:19:40;97211.38;;;8.12;100.00
10014;BME280;45684;48.358;10.746;2023-02-19T21:22:08;97207.03;;;8.11;100.00
10014;BME280;45684;48.358;10.746;2023-02-19T21:25:00;97204.63;;;8.04;100.00
10014;BME280;45684;48.358;10.746;2023-02-19T21:27:53;97204.38;;;8.01;100.00
10014;BME280;45684;48.358;10.746;2023-02-19T21:30:46;97203.28;;;8.02;100.00
10014;BME280;45684;48.358;10.746;2023-02-19T21:33:20;97210.56;;;8.01;100.00
10014;BME280;45684;48.358;10.746;2023-02-19T21:36:02;97214.34;;;8.00;100.00
10014;BME280;45684;48.358;10.746;2023-02-19T21:38:31;97220.28;;;8.02;100.00
10014;BME280;45684;48.358;10.746;2023-02-19T21:41:26;97214.63;;;7.99;100.00
10014;BME280;45684;48.358;10.746;2023-02-19T21:43:55;97206.78;;;7.97;100.00
10014;BME280;45684;48.358;10.746;2023-02-19T21:46:28;97208.69;;;7.97;100.00
10014;BME280;45684;48.358;10.746;2023-02-19T21:49:01;97196.56;;;7.99;100.00
10014;BME280;45684;48.358;10.746;2023-02-19T21:51:38;97205.19;;;7.96;100.00
10014;BME280;45684;48.358;10.746;2023-02-19T21:54:13;97206.78;;;7.97;100.00
10014;BME280;45684;48.358;10.746;2023-02-19T21:56:46;97204.66;;;7.94;100.00
10014;BME280;45684;48.358;10.746;2023-02-19T21:59:15;97207.91;;;7.91;100.00
10014;BME280;45684;48.358;10.746;2023-02-19T22:01:48;97207.91;;;7.91;100.00
10014;BME280;45684;48.358;10.746;2023-02-19T22:04:21;97219.47;;;7.91;100.00
10014;BME280;45684;48.358;10.746;2023-02-19T22:06:53;97206.28;;;7.90;100.00
10014;BME280;45684;48.358;10.746;2023-02-19T22:09:23;97210.88;;;7.89;100.00
10014;BME280;45684;48.358;10.746;2023-02-19T22:11:51;97203.63;;;7.85;100.00
10014;BME280;45684;48.358;10.746;2023-02-19T22:14:25;97208.44;;;7.83;100.00
10014;BME280;45684;48.358;10.746;2023-02-19T22:16:56;97206.03;;;7.81;100.00
10014;BME280;45684;48.358;10.746;2023-02-19T22:19:30;97204.94;;;7.82;100.00
10014;BME280;45684;48.358;10.746;2023-02-19T22:22:00;97218.16;;;7.84;100.00
10014;BME280;45684;48.358;10.746;2023-02-19T22:24:31;97208.72;;;7.81;100.00
10014;BME280;45684;48.358;10.746;2023-02-19T22:26:59;97207.41;;;7.84;100.00
10014;BME280;45684;48.358;10.746;2023-02-19T22:29:28;97202.81;;;7.84;100.00
10014;BME280;45684;48.358;10.746;2023-02-19T22:31:58;97206.31;;;7.80;100.00
10014;BME280;45684;48.358;10.746;2023-02-19T22:34:30;97199.31;;;7.79;100.00
10014;BME280;45684;48.358;10.746;2023-02-19T22:37:01;97207.13;;;7.75;100.00
10014;BME280;45684;48.358;10.746;2023-02-19T22:39:43;97201.75;;;7.75;100.00
10014;BME280;45684;48.358;10.746;2023-02-19T22:42:12;97199.88;;;7.76;100.00
10014;BME280;45684;48.358;10.746;2023-02-19T22:44:47;97204.16;;;7.77;100.00
10014;BME280;45684;48.358;10.746;2023-02-19T22:47:24;97206.34;;;7.75;100.00
10014;BME280;45684;48.358;10.746;2023-02-19T22:49:52;97214.94;;;7.77;100.00
10014;BME280;45684;48.358;10.746;2023-02-19T22:52:20;97210.09;;;7.79;100.00
10014;BME280;45684;48.358;10.746;2023-02-19T22:54:53;97223.53;;;7.74;100.00
10014;BME280;45684;48.358;10.746;2023-02-19T22:57:33;97222.22;;;7.76;100.00
10014;BME280;45684;48.358;10.746;2023-02-19T23:00:05;97231.63;;;7.79;100.00
10014;BME280;45684;48.358;10.746;2023-02-19T23:02:35;97227.59;;;7.81;100.00
10014;BME280;45684;48.358;10.746;2023-02-19T23:05:07;97227.06;;;7.79;100.00
10014;BME280;45684;48.358;10.746;2023-02-19T23:07:35;97225.16;;;7.80;100.00
10014;BME280;45684;48.358;10.746;2023-02-19T23:10:06;97232.16;;;7.81;100.00
10014;BME280;45684;48.358;10.746;2023-02-19T23:12:35;97239.16;;;7.82;100.00
10014;BME280;45684;48.358;10.746;2023-02-19T23:15:04;97244.28;;;7.83;100.00
10014;BME280;45684;48.358;10.746;2023-02-19T23:17:32;97241.31;;;7.85;100.00
10014;BME280;45684;48.358;10.746;2023-02-19T23:20:03;97243.72;;;7.86;100.00
10014;BME280;45684;48.358;10.746;2023-02-19T23:22:31;97238.63;;;7.85;100.00
10014;BME280;45684;48.358;10.746;2023-02-19T23:25:01;97242.41;;;7.84;100.00
10014;BME280;45684;48.358;10.746;2023-02-19T23:27:29;97242.41;;;7.84;100.00
10014;BME280;45684;48.358;10.746;2023-02-19T23:29:57;97240.50;;;7.84;100.00
10014;BME280;45684;48.358;10.746;2023-02-19T23:32:28;97236.22;;;7.83;100.00
10014;BME280;45684;48.358;10.746;2023-02-19T23:34:57;97245.63;;;7.81;100.00
10014;BME280;45684;48.358;10.746;2023-02-19T23:37:27;97241.84;;;7.82;100.00
10014;BME280;45684;48.358;10.746;2023-02-19T23:39:55;97244.28;;;7.83;100.00
10014;BME280;45684;48.358;10.746;2023-02-19T23:42:23;97235.94;;;7.80;100.00
10014;BME280;45684;48.358;10.746;2023-02-19T23:44:51;97235.13;;;7.84;100.00
10014;BME280;45684;48.358;10.746;2023-02-19T23:47:21;97236.22;;;7.83;100.00
10014;BME280;45684;48.358;10.746;2023-02-19T23:49:52;97236.22;;;7.83;100.00
10014;BME280;45684;48.358;10.746;2023-02-19T23:52:20;97241.84;;;7.82;100.00
10014;BME280;45684;48.358;10.746;2023-02-19T23:54:55;97239.44;;;7.80;100.00
10014;BME280;45684;48.358;10.746;2023-02-19T23:57:25;97234.88;;;7.76;100.00
10014;BME280;45684;48.358;10.746;2023-02-19T23:59:53;97243.22;;;7.79;100.00
